Terminal Aerodrome Forecast
Issued by NWS

Home | Current Version | Previous Version | Text Only | Print | Product List | Glossary On
Versions: 1 2 3 4 5 6 7 8 9 10 11 12 13 14 15 16 17
000
FTUS42 KTAE 272327 AAA
TAFVLD
TAF AMD
KVLD 272327Z 2723/2824 10008KT 3SM RA BR VCTS OVC040CB
     FM280100 VRB03KT P6SM OVC100
      TEMPO 2809/2813 2SM BR BKN005
     FM281300 10007KT P6SM SCT040 BKN100
     FM281800 10008KT P6SM VCTS BKN040CB=

USA.gov is the U.S. government's official web portal to all federal, state and local government web resources and services.